Time;durP1;ratioP1;P1;durP2;ratioP2;P2;SDS_P1;SDS_P2;PMS_P1;PMS_P2;Temp;Humidity;BMP_temperature;BMP_pressure;BME280_temperature;BME280_humidity;BME280_pressure;Samples;Min_cycle;Max_cycle;Signal;HPM_P1;HPM_P2
2023/01/01 00:01:09;;;;;;;1.50;1.40;;;;;;;24.33;39.56;99925.09;1867008;76;28204;-51
2023/01/01 00:03:59;;;;;;;1.22;1.20;;;;;;;24.32;39.55;99931.11;1868760;76;28149;-52
2023/01/01 00:06:48;;;;;;;1.32;1.22;;;;;;;24.32;39.61;99917.95;1868197;76;28201;-48
2023/01/01 00:10:38;;;;;;;2.80;1.37;;;;;;;24.31;39.61;99905.27;1851106;77;38425;-52
2023/01/01 00:12:35;;;;;;;1.70;1.60;;;;;;;24.30;39.63;99903.59;1843981;77;28128;-51
2023/01/01 00:15:24;;;;;;;1.30;1.20;;;;;;;24.29;39.60;99878.59;1865782;76;28190;-52
2023/01/01 00:18:13;;;;;;;1.40;1.30;;;;;;;24.29;39.65;99899.19;1863551;76;28286;-50
2023/01/01 00:21:06;;;;;;;1.35;1.25;;;;;;;24.30;39.64;99894.82;1857522;76;28224;-52
2023/01/01 00:23:55;;;;;;;1.50;1.40;;;;;;;24.30;39.62;99917.31;1853271;75;28226;-49
2023/01/01 00:26:43;;;;;;;1.50;1.40;;;;;;;24.30;39.66;99921.44;1868235;75;28112;-51
2023/01/01 00:29:32;;;;;;;2.22;1.30;;;;;;;24.29;39.66;99915.66;1868047;76;28111;-53
2023/01/01 00:32:21;;;;;;;1.20;1.20;;;;;;;24.28;39.65;99914.81;1865412;76;28114;-51
2023/01/01 00:35:10;;;;;;;1.77;1.40;;;;;;;24.26;39.65;99915.59;1849627;75;28216;-49
2023/01/01 00:37:58;;;;;;;1.50;1.40;;;;;;;24.27;39.67;99908.20;1868106;76;28147;-53
2023/01/01 00:40:46;;;;;;;1.45;1.35;;;;;;;24.27;39.69;99913.69;1861483;76;28224;-52
2023/01/01 00:43:35;;;;;;;1.50;1.40;;;;;;;24.24;39.69;99887.55;1862582;76;28215;-50
2023/01/01 00:46:23;;;;;;;2.05;1.20;;;;;;;24.24;39.69;99901.27;1865763;76;28156;-51
2023/01/01 00:49:11;;;;;;;1.35;1.25;;;;;;;24.25;39.69;99909.78;1842880;76;28102;-51
2023/01/01 00:52:00;;;;;;;1.55;1.45;;;;;;;24.26;39.69;99899.65;1864813;76;28297;-52
2023/01/01 00:54:49;;;;;;;1.20;1.20;;;;;;;24.23;39.70;99911.94;1853880;76;28153;-48
2023/01/01 00:57:37;;;;;;;1.37;1.37;;;;;;;24.25;39.69;99886.45;1863108;75;33173;-51
2023/01/01 01:00:26;;;;;;;1.27;1.17;;;;;;;24.24;39.69;99887.55;1865776;76;28080;-51
2023/01/01 01:03:27;;;;;;;1.60;1.50;;;;;;;24.24;39.68;99909.50;1845584;76;28162;-50
2023/01/01 01:06:18;;;;;;;1.22;1.22;;;;;;;24.21;39.74;99892.66;1855761;76;28127;-51
2023/01/01 01:09:06;;;;;;;1.92;1.40;;;;;;;24.20;39.79;99911.02;1864639;76;28758;-53
2023/01/01 01:11:55;;;;;;;1.27;1.20;;;;;;;24.19;39.77;99906.62;1868194;76;38126;-51
2023/01/01 01:14:43;;;;;;;1.40;1.30;;;;;;;24.20;39.78;99903.34;1867589;76;28173;-52
2023/01/01 01:17:31;;;;;;;1.33;1.30;;;;;;;24.20;39.80;99899.23;1848789;75;28201;-52
2023/01/01 01:20:20;;;;;;;1.50;1.40;;;;;;;24.19;39.78;99901.13;1866732;76;28137;-54
2023/01/01 01:23:08;;;;;;;1.55;1.45;;;;;;;24.21;39.76;99903.63;1868189;76;28195;-51
2023/01/01 01:26:14;;;;;;;1.20;1.20;;;;;;;24.20;39.79;99900.04;1854457;76;28111;-53
2023/01/01 01:29:03;;;;;;;1.57;1.22;;;;;;;24.22;39.76;99914.40;1867648;76;28094;-50
2023/01/01 01:31:52;;;;;;;1.12;1.10;;;;;;;24.19;39.83;99925.84;1853979;76;28157;-51
2023/01/01 01:34:40;;;;;;;1.20;1.20;;;;;;;24.18;39.84;99928.27;1854976;76;33181;-54
2023/01/01 01:37:29;;;;;;;1.37;1.30;;;;;;;24.20;39.85;99945.89;1868389;76;28171;-52
2023/01/01 01:40:18;;;;;;;1.02;1.02;;;;;;;24.19;39.89;99942.31;1868444;76;28125;-50
2023/01/01 01:43:10;;;;;;;1.40;1.30;;;;;;;24.19;39.99;99949.17;1853814;75;28239;-50
2023/01/01 01:46:04;;;;;;;1.30;1.20;;;;;;;24.19;39.99;99949.17;1846786;76;28292;-53
2023/01/01 01:48:54;;;;;;;1.45;1.35;;;;;;;24.19;39.89;99957.41;1853753;76;28301;-50
2023/01/01 01:51:44;;;;;;;2.70;1.20;;;;;;;24.19;39.90;99956.56;1859802;76;28176;-52
2023/01/01 01:54:33;;;;;;;1.40;1.30;;;;;;;24.18;39.91;99964.52;1856332;76;28173;-52
2023/01/01 01:57:22;;;;;;;1.67;1.30;;;;;;;24.20;39.94;99968.67;1866160;76;28246;-49
2023/01/01 02:00:13;;;;;;;1.32;1.22;;;;;;;24.19;39.88;99953.29;1848604;76;28177;-47
2023/01/01 02:03:10;;;;;;;1.00;1.00;;;;;;;24.19;39.95;99967.55;1868369;76;28165;-48
2023/01/01 02:05:59;;;;;;;1.32;1.22;;;;;;;24.19;39.95;99968.39;1867226;76;28351;-51
2023/01/01 02:08:50;;;;;;;1.30;1.20;;;;;;;24.18;39.96;99977.67;1868429;76;28086;-55
2023/01/01 02:11:39;;;;;;;1.20;1.20;;;;;;;24.18;39.95;99981.80;1868177;76;28174;-56
2023/01/01 02:14:27;;;;;;;1.22;1.20;;;;;;;24.18;39.97;99991.41;1858596;76;28173;-50
2023/01/01 02:17:24;;;;;;;1.37;1.30;;;;;;;24.17;39.97;99976.02;1871321;76;28193;-48
2023/01/01 02:20:30;;;;;;;1.30;1.20;;;;;;;24.18;39.95;99995.52;1816978;76;28189;-50
2023/01/01 02:23:51;;;;;;;1.00;1.00;;;;;;;24.20;39.97;99981.58;1852910;76;28254;-53
2023/01/01 02:26:54;;;;;;;1.12;1.10;;;;;;;24.16;39.98;99985.31;1870071;76;28256;-49
2023/01/01 02:29:54;;;;;;;1.10;1.10;;;;;;;24.14;40.05;99998.44;1799378;79;30345;-50
2023/01/01 02:32:51;;;;;;;1.20;1.10;;;;;;;24.13;40.05;99994.03;1868786;75;28197;-50
2023/01/01 02:35:46;;;;;;;1.00;1.00;;;;;;;24.12;40.06;100001.11;1853058;76;28294;-50
2023/01/01 02:38:40;;;;;;;1.80;1.30;;;;;;;24.13;40.09;100008.29;1864707;76;28883;-52
2023/01/01 02:41:35;;;;;;;1.22;1.22;;;;;;;24.14;40.08;100004.45;1856929;76;28181;-51
2023/01/01 02:44:26;;;;;;;1.00;1.00;;;;;;;24.15;40.10;100011.63;1866669;75;28179;-52
2023/01/01 02:47:18;;;;;;;1.40;1.30;;;;;;;24.14;40.04;100012.69;1868670;76;28141;-50
2023/01/01 02:50:14;;;;;;;1.05;1.05;;;;;;;24.15;40.11;100005.61;1865747;76;28118;-52
2023/01/01 02:53:24;;;;;;;1.30;1.20;;;;;;;24.15;40.05;100028.95;1871985;75;28539;-53
2023/01/01 02:56:21;;;;;;;1.22;1.15;;;;;;;24.15;40.03;100019.34;1842765;76;28394;-54
2023/01/01 03:03:03;;;;;;;1.20;1.20;;;;;;;24.14;40.08;100023.67;1854909;76;28255;-56
2023/01/01 03:09:13;;;;;;;1.10;1.10;;;;;;;24.10;40.12;100021.09;1843683;75;28337;-48
2023/01/01 03:12:07;;;;;;;1.60;1.10;;;;;;;24.10;40.17;100030.70;1867739;76;28219;-50
2023/01/01 03:15:01;;;;;;;1.20;1.10;;;;;;;24.10;40.14;100042.52;1850593;76;28196;-53
2023/01/01 03:18:08;;;;;;;1.05;1.05;;;;;;;24.12;40.12;100022.54;1864678;75;28106;-54
2023/01/01 03:20:58;;;;;;;1.27;1.10;;;;;;;24.11;40.10;100042.81;1858029;76;28590;-49
2023/01/01 03:23:53;;;;;;;1.10;1.10;;;;;;;24.10;40.11;100017.83;1828786;75;28390;-48
2023/01/01 03:26:41;;;;;;;1.27;1.25;;;;;;;24.12;40.08;100018.42;1805835;78;28293;-49
2023/01/01 03:29:33;;;;;;;2.87;1.43;;;;;;;24.13;40.09;100047.56;1822355;77;28392;-53
2023/01/01 03:32:59;;;;;;;1.10;1.10;;;;;;;24.14;40.06;100035.49;1814676;78;28396;-51
2023/01/01 03:35:24;;;;;;;1.20;1.10;;;;;;;24.14;40.07;100024.52;1805027;78;28343;-51
2023/01/01 03:38:18;;;;;;;1.10;1.10;;;;;;;24.13;40.11;100050.30;1816128;77;28254;-54
2023/01/01 03:41:27;;;;;;;1.00;1.00;;;;;;;24.12;40.12;100052.73;1794110;78;28351;-51
2023/01/01 03:44:24;;;;;;;0.97;0.97;;;;;;;24.13;40.11;100040.70;1808146;78;28373;-51
2023/01/01 03:47:14;;;;;;;1.07;1.07;;;;;;;24.12;40.12;100043.13;1815152;77;28346;-52
2023/01/01 03:50:04;;;;;;;1.20;1.20;;;;;;;24.13;40.18;100053.05;1808154;77;28494;-51
2023/01/01 03:52:59;;;;;;;1.50;1.07;;;;;;;24.13;40.12;100046.72;1794562;78;28336;-49
2023/01/01 03:56:05;;;;;;;1.10;1.10;;;;;;;24.13;40.13;100042.59;1793608;78;28404;-49
2023/01/01 03:58:59;;;;;;;1.12;1.12;;;;;;;24.13;40.12;100035.73;1808799;78;28340;-53
2023/01/01 04:01:51;;;;;;;1.27;1.17;;;;;;;24.12;40.17;100030.78;1821659;77;28248;-55
2023/01/01 04:04:39;;;;;;;1.20;1.20;;;;;;;24.12;40.17;100043.13;1807809;78;28293;-53
2023/01/01 04:07:31;;;;;;;1.20;1.10;;;;;;;24.11;40.20;100051.05;1817389;77;28282;-54
2023/01/01 04:10:21;;;;;;;1.20;1.20;;;;;;;24.11;40.15;100044.18;1815655;77;32229;-53
2023/01/01 04:13:09;;;;;;;1.10;1.10;;;;;;;24.14;40.18;100049.75;1824200;77;28305;-49
2023/01/01 04:15:58;;;;;;;1.35;1.35;;;;;;;24.14;40.14;100043.73;1813776;77;28357;-52
2023/01/01 04:18:46;;;;;;;1.22;1.12;;;;;;;24.13;40.16;100036.58;1819887;75;28384;-54
2023/01/01 04:21:35;;;;;;;1.00;1.00;;;;;;;24.14;40.15;100049.22;1809380;78;28435;-52
2023/01/01 04:24:23;;;;;;;1.27;1.17;;;;;;;24.15;40.16;100046.79;1817013;77;28145;-52
2023/01/01 04:27:12;;;;;;;1.45;1.20;;;;;;;24.14;40.16;100042.88;1839905;77;28160;-53
2023/01/01 04:30:00;;;;;;;1.20;1.07;;;;;;;24.13;40.16;100048.09;1850147;77;28119;-49
2023/01/01 04:32:48;;;;;;;0.97;0.97;;;;;;;24.15;40.11;100046.79;1864215;76;28154;-53
2023/01/01 04:35:36;;;;;;;1.47;1.00;;;;;;;24.16;40.12;100058.05;1852455;76;28191;-49
2023/01/01 04:38:25;;;;;;;1.55;1.10;;;;;;;24.15;40.12;100045.42;1865714;76;28638;-50
2023/01/01 04:41:13;;;;;;;1.00;1.00;;;;;;;24.15;40.15;100052.81;1871727;75;28267;-52
2023/01/01 04:44:03;;;;;;;1.60;1.20;;;;;;;24.15;40.16;100053.66;1832766;77;28091;-51
2023/01/01 04:46:51;;;;;;;1.25;1.15;;;;;;;24.14;40.17;100073.92;1850924;76;28173;-50
2023/01/01 04:49:40;;;;;;;1.20;1.10;;;;;;;24.15;40.15;100053.66;1857787;75;28157;-53
2023/01/01 04:52:28;;;;;;;1.00;1.00;;;;;;;24.15;40.21;100042.67;1868185;76;28231;-53
2023/01/01 04:55:17;;;;;;;1.50;1.20;;;;;;;24.13;40.20;100051.68;1850383;77;28078;-57
2023/01/01 04:58:05;;;;;;;1.20;1.10;;;;;;;24.14;40.23;100066.22;1844891;77;28249;-57
2023/01/01 05:00:54;;;;;;;1.10;1.10;;;;;;;24.15;40.24;100063.27;1848711;77;28316;-52
2023/01/01 05:03:42;;;;;;;1.10;1.10;;;;;;;24.15;40.24;100055.55;1862975;76;28143;-56
2023/01/01 05:06:31;;;;;;;1.73;1.20;;;;;;;24.13;40.23;100054.42;1867797;76;28189;-57
2023/01/01 05:09:19;;;;;;;1.22;1.12;;;;;;;24.15;40.20;100067.37;1866122;76;28126;-54
2023/01/01 05:12:08;;;;;;;1.22;1.20;;;;;;;24.15;40.21;100063.27;1867569;76;28203;-53
2023/01/01 05:14:56;;;;;;;0.98;0.98;;;;;;;24.14;40.19;100060.20;1790902;79;28434;-51
2023/01/01 05:17:44;;;;;;;1.07;1.07;;;;;;;24.15;40.17;100063.27;1793433;78;28385;-55
2023/01/01 05:20:33;;;;;;;1.30;1.20;;;;;;;24.16;40.18;100074.53;1798627;77;28451;-50
2023/01/01 05:23:21;;;;;;;0.82;0.82;;;;;;;24.14;40.23;100067.06;1813005;77;28377;-51
2023/01/01 05:26:13;;;;;;;1.10;1.10;;;;;;;24.16;40.22;100066.81;1812382;78;28264;-51
2023/01/01 05:29:02;;;;;;;1.20;1.10;;;;;;;24.16;40.16;100080.55;1798911;78;28460;-53
2023/01/01 05:31:50;;;;;;;1.20;1.20;;;;;;;24.18;40.14;100083.92;1819487;78;28281;-53
2023/01/01 05:34:38;;;;;;;1.20;1.20;;;;;;;24.16;40.10;100085.50;1819237;78;28622;-52
2023/01/01 05:37:27;;;;;;;1.10;1.00;;;;;;;24.17;40.09;100084.45;1819423;78;28185;-51
2023/01/01 05:40:15;;;;;;;1.40;1.07;;;;;;;24.18;40.03;100081.99;1819310;78;28414;-58
2023/01/01 05:43:03;;;;;;;1.20;1.20;;;;;;;24.15;40.13;100083.84;1817438;78;28243;-57
2023/01/01 05:46:07;;;;;;;1.60;1.50;;;;;;;24.13;40.05;100079.66;1817810;78;28297;-47
2023/01/01 05:48:56;;;;;;;1.15;1.05;;;;;;;24.06;39.77;100092.09;1818377;78;28373;-54
2023/01/01 05:51:44;;;;;;;1.33;1.23;;;;;;;24.05;39.93;100087.10;1819090;78;28304;-54
2023/01/01 05:54:32;;;;;;;1.13;1.13;;;;;;;24.04;39.97;100079.08;1818035;78;28320;-55
2023/01/01 05:57:21;;;;;;;1.20;1.20;;;;;;;23.99;40.02;100077.58;1838346;77;28190;-57
2023/01/01 06:00:10;;;;;;;1.00;1.00;;;;;;;24.04;39.99;100089.52;1830797;77;28193;-56
2023/01/01 06:02:58;;;;;;;1.10;1.10;;;;;;;24.05;40.03;100068.41;1829375;77;28251;-51
2023/01/01 06:05:47;;;;;;;1.20;1.20;;;;;;;24.05;40.07;100084.36;1809767;78;28487;-55
2023/01/01 06:08:36;;;;;;;1.32;1.32;;;;;;;24.05;40.08;100074.75;1828349;77;28254;-53
2023/01/01 06:11:25;;;;;;;1.40;1.20;;;;;;;24.06;40.04;100072.88;1834986;77;28260;-58
2023/01/01 06:14:13;;;;;;;1.30;1.30;;;;;;;24.08;40.05;100074.86;1792299;79;28455;-60
2023/01/01 06:17:03;;;;;;;1.50;1.40;;;;;;;24.07;40.05;100074.54;1832071;77;28135;-61
2023/01/01 06:19:52;;;;;;;1.10;1.10;;;;;;;24.04;40.04;100081.30;1806176;78;28312;-58
2023/01/01 06:22:40;;;;;;;1.30;1.20;;;;;;;24.07;40.06;100084.14;1833484;77;28197;-58
2023/01/01 06:25:29;;;;;;;1.40;1.30;;;;;;;24.08;40.05;100080.87;1827825;76;36384;-57
2023/01/01 06:28:17;;;;;;;1.70;1.20;;;;;;;24.07;40.08;100103.36;1867251;76;28217;-58
2023/01/01 06:31:08;;;;;;;1.30;1.20;;;;;;;24.05;40.07;100076.65;1868261;76;28703;-61
2023/01/01 06:33:57;;;;;;;1.22;1.12;;;;;;;24.02;40.11;100079.31;1865424;76;28236;-58
2023/01/01 06:36:45;;;;;;;1.17;1.07;;;;;;;24.03;40.10;100100.22;1867598;76;34143;-56
2023/01/01 06:39:34;;;;;;;1.20;1.20;;;;;;;24.03;40.13;100095.26;1861899;76;28204;-56
2023/01/01 06:42:22;;;;;;;1.25;1.15;;;;;;;24.03;40.13;100094.73;1868535;76;28185;-53
2023/01/01 06:45:12;;;;;;;1.10;1.10;;;;;;;24.03;40.10;100076.89;1868216;76;28160;-59
2023/01/01 06:48:00;;;;;;;1.00;1.00;;;;;;;24.03;40.06;100091.14;1866265;76;28198;-58
2023/01/01 06:50:49;;;;;;;1.20;1.20;;;;;;;24.03;40.06;100075.52;1868016;76;38427;-59
2023/01/01 06:53:39;;;;;;;1.00;1.00;;;;;;;24.03;40.08;100065.06;1868408;76;28106;-52
2023/01/01 06:56:28;;;;;;;1.20;1.10;;;;;;;24.02;40.11;100067.49;1867675;76;28237;-54
2023/01/01 06:59:17;;;;;;;1.02;1.02;;;;;;;24.03;40.08;100073.30;1864859;76;28205;-53
2023/01/01 07:02:05;;;;;;;1.00;1.00;;;;;;;24.03;40.06;100074.67;1862631;76;28171;-51
2023/01/01 07:04:54;;;;;;;1.20;1.10;;;;;;;24.03;40.06;100081.00;1863256;76;28386;-53
2023/01/01 07:07:42;;;;;;;1.10;1.10;;;;;;;24.04;40.05;100072.21;1866700;76;28199;-57
2023/01/01 07:10:30;;;;;;;1.05;1.05;;;;;;;24.03;40.06;100083.75;1860524;76;28147;-60
2023/01/01 07:13:19;;;;;;;0.93;0.93;;;;;;;24.02;40.07;100070.23;1867608;75;28291;-59
2023/01/01 07:16:08;;;;;;;1.00;1.00;;;;;;;24.03;40.06;100086.50;1865038;76;28123;-59
2023/01/01 07:18:57;;;;;;;1.00;1.00;;;;;;;24.01;40.12;100080.37;1867045;76;28165;-57
2023/01/01 07:21:54;;;;;;;1.07;1.07;;;;;;;24.00;40.08;100063.62;1867920;76;28437;-54
2023/01/01 07:24:43;;;;;;;1.30;1.20;;;;;;;24.02;40.06;100065.59;1863801;76;28219;-56
2023/01/01 07:27:31;;;;;;;1.17;1.17;;;;;;;24.00;40.13;100070.48;1860801;76;28203;-57
2023/01/01 07:30:19;;;;;;;2.17;1.10;;;;;;;24.00;40.07;100063.62;1867881;76;28106;-56
2023/01/01 07:33:12;;;;;;;1.20;1.20;;;;;;;24.00;40.07;100070.48;1868128;76;28212;-58
2023/01/01 07:36:01;;;;;;;1.02;1.02;;;;;;;24.00;40.11;100051.27;1864560;76;28166;-56
2023/01/01 07:38:50;;;;;;;1.10;1.10;;;;;;;24.02;40.07;100084.80;1855447;77;28271;-56
2023/01/01 07:41:38;;;;;;;1.67;1.30;;;;;;;24.02;40.06;100079.31;1862537;76;28348;-52
2023/01/01 07:44:27;;;;;;;1.12;1.12;;;;;;;24.01;40.04;100048.00;1862917;76;28451;-49
2023/01/01 07:47:26;;;;;;;1.10;1.10;;;;;;;24.01;40.04;100066.65;1846543;77;28134;-50
2023/01/01 07:50:17;;;;;;;0.98;0.98;;;;;;;24.02;40.05;100056.52;1849909;77;28156;-53
2023/01/01 07:53:05;;;;;;;1.20;1.20;;;;;;;24.01;40.05;100063.09;1863242;76;28178;-55
2023/01/01 07:55:54;;;;;;;1.22;1.22;;;;;;;24.00;40.07;100061.40;1862343;76;28180;-52
2023/01/01 07:58:43;;;;;;;1.00;0.90;;;;;;;24.03;39.99;100069.19;1861398;76;28107;-55
2023/01/01 08:01:31;;;;;;;0.90;0.90;;;;;;;24.04;39.96;100046.98;1851589;77;28112;-53
2023/01/01 08:04:19;;;;;;;1.00;1.00;;;;;;;24.03;39.95;100065.06;1851968;77;28114;-54
2023/01/01 08:07:08;;;;;;;1.30;1.10;;;;;;;24.04;39.95;100050.26;1864904;76;28178;-52
2023/01/01 08:09:56;;;;;;;0.98;0.98;;;;;;;24.03;39.94;100086.50;1861167;76;28136;-54
2023/01/01 08:12:45;;;;;;;1.00;1.00;;;;;;;24.01;39.99;100050.18;1855975;76;28078;-54
2023/01/01 08:15:35;;;;;;;1.42;1.07;;;;;;;24.02;39.94;100055.14;1844645;77;33025;-52
2023/01/01 08:18:24;;;;;;;1.40;1.30;;;;;;;24.05;39.92;100059.66;1868319;76;28124;-55
2023/01/01 08:21:13;;;;;;;1.10;1.10;;;;;;;24.07;39.86;100063.56;1847898;77;28301;-54
2023/01/01 08:24:01;;;;;;;1.17;1.17;;;;;;;24.09;39.84;100057.83;1881414;75;28005;-51
2023/01/01 08:26:50;;;;;;;1.27;1.23;;;;;;;24.06;39.84;100044.06;1855023;76;28271;-58
2023/01/01 08:29:38;;;;;;;1.40;1.20;;;;;;;23.97;39.81;100054.98;1876493;74;28160;-54
2023/01/01 08:32:27;;;;;;;2.33;1.40;;;;;;;24.07;39.80;100038.02;1883013;75;28210;-53
2023/01/01 08:35:15;;;;;;;1.05;1.05;;;;;;;23.82;40.07;100046.33;1859454;75;28194;-53
2023/01/01 08:38:04;;;;;;;1.10;1.10;;;;;;;23.72;40.38;100039.16;1786128;78;28521;-54
2023/01/01 08:40:53;;;;;;;1.17;1.12;;;;;;;23.57;40.66;100038.72;1838409;77;28237;-51
2023/01/01 08:43:41;;;;;;;1.00;1.00;;;;;;;23.48;40.93;100037.34;1810126;78;28247;-52
2023/01/01 08:46:29;;;;;;;1.17;1.17;;;;;;;23.43;41.07;100033.06;1819348;78;28335;-52
2023/01/01 08:49:18;;;;;;;1.20;1.10;;;;;;;23.35;41.22;100032.82;1825804;78;28353;-51
2023/01/01 08:52:06;;;;;;;1.10;1.10;;;;;;;23.32;41.37;100025.85;1877446;75;28207;-53
2023/01/01 08:54:55;;;;;;;0.90;0.90;;;;;;;23.29;41.46;100024.92;1883932;75;28136;-49
2023/01/01 08:57:43;;;;;;;1.30;1.20;;;;;;;23.29;41.56;100039.19;1869710;75;28198;-50
2023/01/01 09:00:31;;;;;;;1.52;1.10;;;;;;;23.30;41.60;100027.98;1805253;78;28200;-54
2023/01/01 09:03:20;;;;;;;1.00;1.00;;;;;;;23.29;41.65;100015.89;1814054;78;28386;-53
2023/01/01 09:06:09;;;;;;;1.17;1.17;;;;;;;23.27;41.72;100027.06;1808516;78;28312;-52
2023/01/01 09:08:57;;;;;;;0.98;0.98;;;;;;;23.24;41.83;100028.88;1810106;78;28559;-51
2023/01/01 09:11:54;;;;;;;1.10;1.10;;;;;;;23.31;41.85;100009.09;1814456;78;28245;-52
2023/01/01 09:14:43;;;;;;;0.98;0.98;;;;;;;23.44;41.74;100018.27;1816456;78;28400;-54
2023/01/01 09:17:31;;;;;;;1.30;1.20;;;;;;;23.51;41.58;100021.26;1821553;78;28383;-53
2023/01/01 09:20:20;;;;;;;1.00;1.00;;;;;;;23.56;41.51;100008.23;1822560;78;28398;-52
2023/01/01 09:23:10;;;;;;;1.00;0.95;;;;;;;23.59;41.50;100025.08;1830874;78;28298;-50
2023/01/01 09:26:07;;;;;;;1.20;1.10;;;;;;;23.63;41.46;100022.18;1829734;78;28306;-53
2023/01/01 09:28:56;;;;;;;0.80;0.80;;;;;;;23.62;41.53;100005.96;1826550;78;28288;-51
2023/01/01 09:31:45;;;;;;;1.20;1.10;;;;;;;23.61;41.58;100013.87;1804273;78;28278;-49
2023/01/01 09:34:33;;;;;;;2.50;0.93;;;;;;;23.65;41.58;100000.84;1823935;78;28353;-54
2023/01/01 09:37:22;;;;;;;0.90;0.90;;;;;;;23.68;41.59;100019.59;1824913;78;28465;-55
2023/01/01 09:40:13;;;;;;;1.10;1.10;;;;;;;23.70;41.53;99998.25;1839643;77;28225;-54
2023/01/01 09:43:19;;;;;;;1.30;1.10;;;;;;;23.71;41.51;100014.19;1801329;79;29707;-54
2023/01/01 09:46:10;;;;;;;1.10;1.00;;;;;;;23.67;41.51;99993.22;1868865;76;28155;-54
2023/01/01 09:49:01;;;;;;;3.65;1.10;;;;;;;23.66;41.51;99996.20;1864395;76;28090;-53
2023/01/01 09:51:52;;;;;;;1.02;1.02;;;;;;;23.69;41.59;100017.66;1860957;76;28106;-55
2023/01/01 09:54:43;;;;;;;1.07;1.07;;;;;;;23.71;41.48;99992.24;1864879;76;28178;-50
2023/01/01 09:57:33;;;;;;;1.17;1.00;;;;;;;23.69;41.53;99991.61;1868805;76;28144;-54
2023/01/01 10:00:21;;;;;;;1.07;1.07;;;;;;;23.73;41.45;99992.32;1863142;76;28178;-53
2023/01/01 10:03:36;;;;;;;1.20;1.20;;;;;;;23.72;41.31;99987.05;1833398;77;28109;-56
2023/01/01 10:06:30;;;;;;;1.70;1.20;;;;;;;23.72;41.24;99993.90;1857666;76;28171;-54
2023/01/01 10:09:34;;;;;;;1.00;1.00;;;;;;;23.70;41.33;99980.95;1836604;76;28310;-54
2023/01/01 10:12:40;;;;;;;2.00;1.10;;;;;;;23.70;41.30;99964.49;1839188;76;28193;-56
2023/01/01 10:15:32;;;;;;;1.00;1.00;;;;;;;23.73;41.37;99969.53;1849779;76;28114;-54
2023/01/01 10:18:23;;;;;;;1.30;1.10;;;;;;;23.75;41.40;99981.95;1867227;76;28465;-55
2023/01/01 10:21:21;;;;;;;1.00;1.00;;;;;;;23.82;41.38;99972.25;1868814;76;28125;-59
2023/01/01 10:24:27;;;;;;;0.95;0.95;;;;;;;23.80;41.35;99956.04;1868873;76;28216;-58
2023/01/01 10:27:38;;;;;;;0.95;0.95;;;;;;;23.86;41.27;99977.58;1863212;76;28134;-57
2023/01/01 10:30:29;;;;;;;0.93;0.82;;;;;;;23.92;41.03;99954.72;1865108;76;28185;-57
2023/01/01 10:33:18;;;;;;;1.82;0.90;;;;;;;23.94;40.90;99960.24;1867861;76;28289;-56
2023/01/01 10:36:10;;;;;;;1.70;1.20;;;;;;;23.97;40.80;99942.48;1855961;77;28200;-57
2023/01/01 10:38:58;;;;;;;1.10;1.10;;;;;;;24.00;40.71;99951.62;1856048;77;28215;-55
2023/01/01 10:41:47;;;;;;;1.60;1.10;;;;;;;23.99;40.65;99954.09;1856807;77;28233;-58
2023/01/01 10:44:36;;;;;;;1.12;1.05;;;;;;;23.99;40.67;99949.41;1848669;76;28190;-59
2023/01/01 10:47:27;;;;;;;0.98;0.98;;;;;;;24.01;40.62;99944.52;1834728;77;28090;-57
2023/01/01 10:50:15;;;;;;;1.17;1.10;;;;;;;24.01;40.66;99943.72;1834977;77;28301;-58
2023/01/01 10:53:04;;;;;;;1.02;1.02;;;;;;;24.03;40.59;99947.06;1868906;76;28448;-55
2023/01/01 10:56:13;;;;;;;1.10;1.10;;;;;;;23.99;40.65;99940.37;1856670;77;28170;-57
2023/01/01 10:59:02;;;;;;;1.65;0.90;;;;;;;24.00;40.62;99929.15;1833412;77;28142;-56
2023/01/01 11:01:53;;;;;;;1.10;1.00;;;;;;;24.00;40.61;99931.05;1864929;76;30132;-53
2023/01/01 11:04:42;;;;;;;2.00;1.00;;;;;;;23.99;40.63;99911.55;1824312;78;37487;-57
2023/01/01 11:07:35;;;;;;;0.90;0.90;;;;;;;23.98;40.64;99887.39;1851647;76;28085;-56
2023/01/01 11:10:25;;;;;;;1.02;1.02;;;;;;;24.00;40.59;99900.86;1836624;76;28343;-56
2023/01/01 11:13:19;;;;;;;1.10;1.00;;;;;;;23.98;40.59;99906.59;1857134;76;28154;-58
2023/01/01 11:16:11;;;;;;;0.90;0.90;;;;;;;24.00;40.55;99900.86;1868675;76;28147;-57
2023/01/01 11:19:10;;;;;;;0.98;0.98;;;;;;;23.98;40.56;99879.16;1852968;76;28116;-55
2023/01/01 11:21:59;;;;;;;1.10;1.00;;;;;;;23.99;40.62;99881.38;1837791;77;28228;-55
2023/01/01 11:24:51;;;;;;;1.90;1.10;;;;;;;23.96;40.61;99890.91;1868457;76;28097;-58
2023/01/01 11:27:39;;;;;;;1.37;1.07;;;;;;;23.95;40.57;99899.35;1846776;76;28239;-57
2023/01/01 11:30:29;;;;;;;1.20;1.10;;;;;;;23.96;40.58;99879.92;1857181;77;28075;-56
2023/01/01 11:33:18;;;;;;;1.05;0.95;;;;;;;23.97;40.52;99876.09;1864411;75;34194;-57
2023/01/01 11:36:08;;;;;;;0.98;0.98;;;;;;;23.98;40.55;99880.53;1879908;75;28111;-56
2023/01/01 11:39:26;;;;;;;1.00;1.00;;;;;;;23.98;40.54;99886.55;1884310;75;28179;-57
2023/01/01 11:42:23;;;;;;;0.87;0.87;;;;;;;23.94;40.56;99871.63;1884531;75;28208;-56
2023/01/01 11:45:24;;;;;;;1.60;1.00;;;;;;;23.92;40.59;99856.75;1884279;75;28102;-57
2023/01/01 11:48:21;;;;;;;0.95;0.93;;;;;;;23.92;40.59;99861.42;1884479;75;28134;-56
2023/01/01 11:51:12;;;;;;;1.20;1.00;;;;;;;23.92;40.58;99862.80;1883877;75;30089;-57
2023/01/01 11:54:13;;;;;;;1.00;1.00;;;;;;;23.93;40.56;99854.84;1810162;78;28231;-57
2023/01/01 11:57:10;;;;;;;0.93;0.90;;;;;;;23.92;40.56;99850.45;1813384;78;28357;-58
2023/01/01 12:00:04;;;;;;;1.02;1.02;;;;;;;23.88;40.75;99860.20;1843174;77;28281;-57
2023/01/01 12:03:00;;;;;;;1.40;1.07;;;;;;;23.91;40.75;99857.00;1842577;77;28390;-53
2023/01/01 12:05:53;;;;;;;1.32;1.22;;;;;;;23.91;40.64;99846.02;1820065;77;31357;-55
2023/01/01 12:09:09;;;;;;;1.17;1.07;;;;;;;23.89;40.73;99837.19;1816200;78;28273;-56
2023/01/01 12:12:09;;;;;;;1.00;1.00;;;;;;;23.88;40.67;99846.48;1831824;77;28327;-52
2023/01/01 12:15:02;;;;;;;1.07;1.07;;;;;;;23.89;40.68;99839.41;1814334;77;28222;-53
2023/01/01 12:18:07;;;;;;;1.20;1.00;;;;;;;23.88;40.68;99823.16;1807297;77;28302;-58
2023/01/01 12:21:02;;;;;;;1.00;0.90;;;;;;;23.87;40.72;99826.99;1812029;78;28444;-55
2023/01/01 12:23:51;;;;;;;1.00;1.00;;;;;;;23.85;40.78;99829.14;1851394;76;28210;-56
2023/01/01 12:26:57;;;;;;;1.30;1.00;;;;;;;23.87;40.74;99831.11;1842267;77;28178;-55
2023/01/01 12:30:05;;;;;;;1.00;1.00;;;;;;;23.87;40.81;99829.20;1841464;77;28171;-57
2023/01/01 12:33:05;;;;;;;1.10;1.10;;;;;;;23.88;40.84;99819.05;1818399;78;28346;-56
2023/01/01 12:36:06;;;;;;;1.27;1.17;;;;;;;23.87;40.78;99822.88;1879914;76;28144;-59
2023/01/01 12:39:30;;;;;;;1.00;1.00;;;;;;;23.87;40.81;99825.63;1878193;76;28077;-60
2023/01/01 12:42:34;;;;;;;1.25;1.20;;;;;;;23.87;40.83;99810.00;1873247;76;28191;-60
2023/01/01 12:45:25;;;;;;;1.07;1.07;;;;;;;23.88;40.84;99816.30;1873544;76;28203;-58
2023/01/01 12:48:22;;;;;;;1.00;1.00;;;;;;;23.85;40.91;99810.75;1881224;76;28228;-58
2023/01/01 12:51:48;;;;;;;1.00;1.00;;;;;;;23.87;40.88;99809.16;1875915;76;28122;-62
2023/01/01 12:54:59;;;;;;;1.37;1.10;;;;;;;23.88;40.87;99805.33;1881004;76;28119;-62
2023/01/01 12:57:51;;;;;;;1.00;1.00;;;;;;;23.85;40.88;99792.10;1877703;76;28108;-59
2023/01/01 13:00:42;;;;;;;1.10;1.00;;;;;;;23.85;40.91;99786.05;1880267;76;28165;-60
2023/01/01 13:03:36;;;;;;;1.10;1.00;;;;;;;23.90;40.90;99792.20;1876403;76;28187;-58
2023/01/01 13:06:27;;;;;;;0.80;0.80;;;;;;;23.91;40.86;99796.63;1877375;76;28161;-60
2023/01/01 13:09:21;;;;;;;1.20;1.10;;;;;;;23.91;40.80;99791.14;1875909;76;28098;-60
2023/01/01 13:12:13;;;;;;;1.22;1.10;;;;;;;23.92;40.81;99796.39;1876645;76;28276;-60
2023/01/01 13:15:04;;;;;;;1.00;1.00;;;;;;;23.90;40.84;99794.95;1865871;74;28140;-47
2023/01/01 13:17:53;;;;;;;1.00;1.00;;;;;;;23.88;40.87;99780.63;1823466;77;28444;-51
2023/01/01 13:20:44;;;;;;;1.00;1.00;;;;;;;23.91;40.83;99798.01;1880864;76;28241;-46
2023/01/01 13:23:37;;;;;;;2.70;1.30;;;;;;;23.95;40.81;99789.59;1870754;75;28146;-46
2023/01/01 13:26:33;;;;;;;1.10;0.98;;;;;;;23.94;40.79;99796.17;1872365;76;28255;-45
2023/01/01 13:29:24;;;;;;;1.00;1.00;;;;;;;23.94;40.70;99791.49;1874087;76;28079;-45
2023/01/01 13:32:14;;;;;;;1.95;0.98;;;;;;;23.95;40.68;99796.45;1876661;76;28748;-46